sensor_id;sensor_type;location;lat;lon;timestamp;P1;durP1;ratioP1;P2;durP2;ratioP2
68995;SDS011;56056;48.990;12.146;2023-12-20T00:01:09;1715.57;;;394.42;;
68995;SDS011;56056;48.990;12.146;2023-12-20T00:03:36;1921.53;;;748.00;;
68995;SDS011;56056;48.990;12.146;2023-12-20T00:06:02;1994.72;;;776.40;;
68995;SDS011;56056;48.990;12.146;2023-12-20T00:08:28;1999.90;;;611.30;;
68995;SDS011;56056;48.990;12.146;2023-12-20T00:10:54;1999.90;;;738.03;;
68995;SDS011;56056;48.990;12.146;2023-12-20T00:13:20;1999.90;;;753.47;;
68995;SDS011;56056;48.990;12.146;2023-12-20T00:15:46;1999.90;;;870.35;;
68995;SDS011;56056;48.990;12.146;2023-12-20T00:18:12;1999.90;;;904.72;;
68995;SDS011;56056;48.990;12.146;2023-12-20T00:20:39;1999.90;;;922.92;;
68995;SDS011;56056;48.990;12.146;2023-12-20T00:23:05;1999.90;;;992.20;;
68995;SDS011;56056;48.990;12.146;2023-12-20T00:25:32;1999.90;;;996.25;;
68995;SDS011;56056;48.990;12.146;2023-12-20T00:27:58;1999.90;;;999.90;;
68995;SDS011;56056;48.990;12.146;2023-12-20T00:30:24;1999.90;;;999.90;;
68995;SDS011;56056;48.990;12.146;2023-12-20T00:32:50;1999.90;;;999.90;;
68995;SDS011;56056;48.990;12.146;2023-12-20T00:35:16;1999.90;;;999.90;;
68995;SDS011;56056;48.990;12.146;2023-12-20T00:37:43;1999.90;;;999.90;;
68995;SDS011;56056;48.990;12.146;2023-12-20T00:40:09;1999.90;;;999.90;;
68995;SDS011;56056;48.990;12.146;2023-12-20T00:42:36;1999.90;;;999.90;;
68995;SDS011;56056;48.990;12.146;2023-12-20T00:45:02;1999.90;;;999.90;;
68995;SDS011;56056;48.990;12.146;2023-12-20T00:47:30;1999.90;;;999.90;;
68995;SDS011;56056;48.990;12.146;2023-12-20T00:49:56;1999.90;;;999.90;;
68995;SDS011;56056;48.990;12.146;2023-12-20T00:52:22;1999.90;;;999.90;;
68995;SDS011;56056;48.990;12.146;2023-12-20T00:54:50;1999.90;;;999.90;;
68995;SDS011;56056;48.990;12.146;2023-12-20T00:57:16;1999.90;;;999.90;;
68995;SDS011;56056;48.990;12.146;2023-12-20T00:59:42;1999.90;;;999.90;;
68995;SDS011;56056;48.990;12.146;2023-12-20T01:02:08;1999.90;;;999.90;;
68995;SDS011;56056;48.990;12.146;2023-12-20T01:04:35;1999.90;;;999.90;;
68995;SDS011;56056;48.990;12.146;2023-12-20T01:07:01;1999.90;;;999.90;;
68995;SDS011;56056;48.990;12.146;2023-12-20T01:09:27;1999.90;;;999.90;;
68995;SDS011;56056;48.990;12.146;2023-12-20T01:11:54;1999.90;;;999.90;;
68995;SDS011;56056;48.990;12.146;2023-12-20T01:14:20;1999.90;;;999.90;;
68995;SDS011;56056;48.990;12.146;2023-12-20T01:16:46;1999.90;;;999.90;;
68995;SDS011;56056;48.990;12.146;2023-12-20T01:19:12;1999.90;;;999.90;;
68995;SDS011;56056;48.990;12.146;2023-12-20T01:21:39;1999.90;;;999.90;;
68995;SDS011;56056;48.990;12.146;2023-12-20T01:24:05;1999.90;;;999.90;;
68995;SDS011;56056;48.990;12.146;2023-12-20T01:26:31;1999.90;;;999.90;;
68995;SDS011;56056;48.990;12.146;2023-12-20T01:28:58;1999.90;;;999.90;;
68995;SDS011;56056;48.990;12.146;2023-12-20T01:31:24;1999.90;;;999.90;;
68995;SDS011;56056;48.990;12.146;2023-12-20T01:33:52;1999.90;;;999.90;;
68995;SDS011;56056;48.990;12.146;2023-12-20T01:36:18;1999.90;;;999.90;;
68995;SDS011;56056;48.990;12.146;2023-12-20T01:38:44;1999.90;;;999.90;;
68995;SDS011;56056;48.990;12.146;2023-12-20T01:41:10;1999.90;;;999.90;;
68995;SDS011;56056;48.990;12.146;2023-12-20T01:43:36;1999.90;;;999.90;;
68995;SDS011;56056;48.990;12.146;2023-12-20T01:46:03;1999.90;;;999.90;;
68995;SDS011;56056;48.990;12.146;2023-12-20T01:48:30;1999.90;;;999.90;;
68995;SDS011;56056;48.990;12.146;2023-12-20T01:50:59;1999.90;;;999.90;;
68995;SDS011;56056;48.990;12.146;2023-12-20T01:53:25;1999.90;;;999.90;;
68995;SDS011;56056;48.990;12.146;2023-12-20T01:55:54;1999.90;;;999.90;;
68995;SDS011;56056;48.990;12.146;2023-12-20T01:58:21;1999.90;;;999.90;;
68995;SDS011;56056;48.990;12.146;2023-12-20T02:00:48;1999.90;;;999.90;;
68995;SDS011;56056;48.990;12.146;2023-12-20T02:03:15;1999.90;;;999.90;;
68995;SDS011;56056;48.990;12.146;2023-12-20T02:05:43;1999.90;;;999.90;;
68995;SDS011;56056;48.990;12.146;2023-12-20T02:08:10;1999.90;;;999.90;;
68995;SDS011;56056;48.990;12.146;2023-12-20T02:10:36;1999.90;;;999.90;;
68995;SDS011;56056;48.990;12.146;2023-12-20T02:13:02;1999.90;;;999.90;;
68995;SDS011;56056;48.990;12.146;2023-12-20T02:15:29;1999.90;;;999.90;;
68995;SDS011;56056;48.990;12.146;2023-12-20T02:17:55;1999.90;;;945.00;;
68995;SDS011;56056;48.990;12.146;2023-12-20T02:20:23;1999.90;;;909.08;;
68995;SDS011;56056;48.990;12.146;2023-12-20T02:22:50;1999.90;;;917.90;;
68995;SDS011;56056;48.990;12.146;2023-12-20T02:25:16;1999.90;;;699.00;;
68995;SDS011;56056;48.990;12.146;2023-12-20T02:27:41;1999.90;;;602.22;;
68995;SDS011;56056;48.990;12.146;2023-12-20T02:30:09;1999.90;;;596.50;;
68995;SDS011;56056;48.990;12.146;2023-12-20T02:32:36;1999.90;;;999.90;;
68995;SDS011;56056;48.990;12.146;2023-12-20T02:35:02;1999.90;;;672.00;;
68995;SDS011;56056;48.990;12.146;2023-12-20T02:37:28;1698.75;;;432.48;;
68995;SDS011;56056;48.990;12.146;2023-12-20T02:39:56;1788.32;;;482.50;;
68995;SDS011;56056;48.990;12.146;2023-12-20T02:42:21;1840.32;;;534.65;;
68995;SDS011;56056;48.990;12.146;2023-12-20T02:44:47;1999.90;;;695.70;;
68995;SDS011;56056;48.990;12.146;2023-12-20T02:47:13;1958.70;;;561.65;;
68995;SDS011;56056;48.990;12.146;2023-12-20T02:49:39;1999.90;;;762.13;;
68995;SDS011;56056;48.990;12.146;2023-12-20T02:52:05;1999.90;;;892.13;;
68995;SDS011;56056;48.990;12.146;2023-12-20T02:54:31;1999.90;;;612.25;;
68995;SDS011;56056;48.990;12.146;2023-12-20T02:56:58;1999.90;;;626.15;;
68995;SDS011;56056;48.990;12.146;2023-12-20T02:59:24;1999.90;;;724.58;;
68995;SDS011;56056;48.990;12.146;2023-12-20T03:01:50;1999.90;;;853.63;;
68995;SDS011;56056;48.990;12.146;2023-12-20T03:04:16;1999.90;;;849.67;;
68995;SDS011;56056;48.990;12.146;2023-12-20T03:06:42;1999.90;;;790.20;;
68995;SDS011;56056;48.990;12.146;2023-12-20T03:09:07;1999.90;;;882.88;;
68995;SDS011;56056;48.990;12.146;2023-12-20T03:11:33;1999.90;;;891.00;;
68995;SDS011;56056;48.990;12.146;2023-12-20T03:14:01;1999.90;;;894.28;;
68995;SDS011;56056;48.990;12.146;2023-12-20T03:16:26;1999.90;;;970.22;;
68995;SDS011;56056;48.990;12.146;2023-12-20T03:18:52;1999.90;;;999.90;;
68995;SDS011;56056;48.990;12.146;2023-12-20T03:21:18;1999.90;;;999.90;;
68995;SDS011;56056;48.990;12.146;2023-12-20T03:23:44;1999.90;;;999.90;;
68995;SDS011;56056;48.990;12.146;2023-12-20T03:26:10;1999.90;;;999.90;;
68995;SDS011;56056;48.990;12.146;2023-12-20T03:28:36;1999.90;;;999.90;;
68995;SDS011;56056;48.990;12.146;2023-12-20T03:31:03;1999.90;;;999.90;;
68995;SDS011;56056;48.990;12.146;2023-12-20T03:33:29;1999.90;;;999.90;;
68995;SDS011;56056;48.990;12.146;2023-12-20T03:35:55;1999.90;;;999.90;;
68995;SDS011;56056;48.990;12.146;2023-12-20T03:38:21;1999.90;;;999.90;;
68995;SDS011;56056;48.990;12.146;2023-12-20T03:40:50;1999.90;;;999.90;;
68995;SDS011;56056;48.990;12.146;2023-12-20T03:43:16;1999.90;;;999.90;;
68995;SDS011;56056;48.990;12.146;2023-12-20T03:45:42;1999.90;;;999.90;;
68995;SDS011;56056;48.990;12.146;2023-12-20T03:48:10;1999.90;;;999.90;;
68995;SDS011;56056;48.990;12.146;2023-12-20T03:50:35;1999.90;;;999.90;;
68995;SDS011;56056;48.990;12.146;2023-12-20T03:53:01;1999.90;;;999.90;;
68995;SDS011;56056;48.990;12.146;2023-12-20T03:55:28;1999.90;;;999.90;;
68995;SDS011;56056;48.990;12.146;2023-12-20T03:57:54;1999.90;;;999.90;;
68995;SDS011;56056;48.990;12.146;2023-12-20T04:00:20;1999.90;;;999.90;;
68995;SDS011;56056;48.990;12.146;2023-12-20T04:02:46;1999.90;;;999.90;;
68995;SDS011;56056;48.990;12.146;2023-12-20T04:05:13;1999.90;;;999.90;;
68995;SDS011;56056;48.990;12.146;2023-12-20T04:07:39;1999.90;;;999.90;;
68995;SDS011;56056;48.990;12.146;2023-12-20T04:10:05;1999.90;;;999.90;;
68995;SDS011;56056;48.990;12.146;2023-12-20T04:12:33;1999.90;;;999.90;;
68995;SDS011;56056;48.990;12.146;2023-12-20T04:14:59;1999.90;;;999.90;;
68995;SDS011;56056;48.990;12.146;2023-12-20T04:17:25;1999.90;;;961.25;;
68995;SDS011;56056;48.990;12.146;2023-12-20T04:19:51;1999.90;;;861.67;;
68995;SDS011;56056;48.990;12.146;2023-12-20T04:22:18;1999.90;;;999.90;;
68995;SDS011;56056;48.990;12.146;2023-12-20T04:24:44;1999.90;;;793.15;;
68995;SDS011;56056;48.990;12.146;2023-12-20T04:27:10;1999.90;;;693.83;;
68995;SDS011;56056;48.990;12.146;2023-12-20T04:29:37;1999.90;;;643.25;;
68995;SDS011;56056;48.990;12.146;2023-12-20T04:32:03;1999.90;;;764.20;;
68995;SDS011;56056;48.990;12.146;2023-12-20T04:34:29;1988.35;;;879.40;;
68995;SDS011;56056;48.990;12.146;2023-12-20T04:36:55;1859.97;;;743.72;;
68995;SDS011;56056;48.990;12.146;2023-12-20T04:39:23;1459.22;;;485.88;;
68995;SDS011;56056;48.990;12.146;2023-12-20T04:41:48;1999.90;;;999.90;;
68995;SDS011;56056;48.990;12.146;2023-12-20T04:44:15;1289.20;;;323.58;;
68995;SDS011;56056;48.990;12.146;2023-12-20T04:46:41;1999.90;;;999.90;;
68995;SDS011;56056;48.990;12.146;2023-12-20T04:49:07;1999.90;;;999.90;;
68995;SDS011;56056;48.990;12.146;2023-12-20T04:51:33;1999.90;;;999.90;;
68995;SDS011;56056;48.990;12.146;2023-12-20T04:53:59;1999.90;;;999.90;;
68995;SDS011;56056;48.990;12.146;2023-12-20T04:56:26;1999.90;;;999.90;;
68995;SDS011;56056;48.990;12.146;2023-12-20T04:58:52;1205.85;;;269.15;;
68995;SDS011;56056;48.990;12.146;2023-12-20T05:01:18;1645.03;;;642.50;;
68995;SDS011;56056;48.990;12.146;2023-12-20T05:03:45;1999.90;;;999.90;;
68995;SDS011;56056;48.990;12.146;2023-12-20T05:06:11;1999.90;;;999.90;;
68995;SDS011;56056;48.990;12.146;2023-12-20T05:08:37;1039.28;;;209.75;;
68995;SDS011;56056;48.990;12.146;2023-12-20T05:11:03;1999.90;;;999.90;;
68995;SDS011;56056;48.990;12.146;2023-12-20T05:13:31;1537.00;;;621.17;;
68995;SDS011;56056;48.990;12.146;2023-12-20T05:15:57;1519.38;;;623.72;;
68995;SDS011;56056;48.990;12.146;2023-12-20T05:18:23;1566.03;;;628.33;;
68995;SDS011;56056;48.990;12.146;2023-12-20T05:20:49;1827.22;;;826.17;;
68995;SDS011;56056;48.990;12.146;2023-12-20T05:23:15;1363.80;;;356.42;;
68995;SDS011;56056;48.990;12.146;2023-12-20T05:25:42;1649.35;;;641.17;;
68995;SDS011;56056;48.990;12.146;2023-12-20T05:28:08;1999.90;;;999.90;;
68995;SDS011;56056;48.990;12.146;2023-12-20T05:30:35;1852.85;;;836.72;;
68995;SDS011;56056;48.990;12.146;2023-12-20T05:33:01;1723.80;;;563.30;;
68995;SDS011;56056;48.990;12.146;2023-12-20T05:35:27;1933.13;;;855.22;;
68995;SDS011;56056;48.990;12.146;2023-12-20T05:37:53;1787.82;;;477.60;;
68995;SDS011;56056;48.990;12.146;2023-12-20T05:40:19;1857.03;;;478.88;;
68995;SDS011;56056;48.990;12.146;2023-12-20T05:42:45;1933.60;;;514.17;;
68995;SDS011;56056;48.990;12.146;2023-12-20T05:45:11;1979.93;;;581.83;;
68995;SDS011;56056;48.990;12.146;2023-12-20T05:47:39;1999.90;;;680.97;;
68995;SDS011;56056;48.990;12.146;2023-12-20T05:50:05;1999.90;;;908.08;;
68995;SDS011;56056;48.990;12.146;2023-12-20T05:52:32;1999.90;;;830.30;;
68995;SDS011;56056;48.990;12.146;2023-12-20T05:54:58;1999.90;;;657.42;;
68995;SDS011;56056;48.990;12.146;2023-12-20T05:57:26;1999.90;;;835.45;;
68995;SDS011;56056;48.990;12.146;2023-12-20T05:59:52;1999.90;;;770.88;;
68995;SDS011;56056;48.990;12.146;2023-12-20T06:02:17;1999.90;;;659.10;;
68995;SDS011;56056;48.990;12.146;2023-12-20T06:04:45;1999.90;;;669.50;;
68995;SDS011;56056;48.990;12.146;2023-12-20T06:07:11;1999.90;;;725.30;;
68995;SDS011;56056;48.990;12.146;2023-12-20T06:09:38;1999.90;;;827.50;;
68995;SDS011;56056;48.990;12.146;2023-12-20T06:12:04;1999.90;;;648.95;;
68995;SDS011;56056;48.990;12.146;2023-12-20T06:14:30;1999.90;;;711.28;;
68995;SDS011;56056;48.990;12.146;2023-12-20T06:16:56;1999.90;;;778.28;;
68995;SDS011;56056;48.990;12.146;2023-12-20T06:19:22;1999.90;;;756.28;;
68995;SDS011;56056;48.990;12.146;2023-12-20T06:21:49;1999.90;;;745.47;;
68995;SDS011;56056;48.990;12.146;2023-12-20T06:24:15;1999.90;;;999.90;;
68995;SDS011;56056;48.990;12.146;2023-12-20T06:26:41;1999.90;;;643.47;;
68995;SDS011;56056;48.990;12.146;2023-12-20T06:29:08;1999.90;;;892.55;;
68995;SDS011;56056;48.990;12.146;2023-12-20T06:31:34;1999.90;;;583.17;;
68995;SDS011;56056;48.990;12.146;2023-12-20T06:34:00;1999.90;;;587.00;;
68995;SDS011;56056;48.990;12.146;2023-12-20T06:36:26;1999.90;;;605.00;;
68995;SDS011;56056;48.990;12.146;2023-12-20T06:38:53;1999.90;;;610.92;;
68995;SDS011;56056;48.990;12.146;2023-12-20T06:41:19;1999.90;;;567.30;;
68995;SDS011;56056;48.990;12.146;2023-12-20T06:43:45;1999.90;;;604.38;;
68995;SDS011;56056;48.990;12.146;2023-12-20T06:46:12;1999.90;;;675.38;;
68995;SDS011;56056;48.990;12.146;2023-12-20T06:48:38;1999.90;;;879.92;;
68995;SDS011;56056;48.990;12.146;2023-12-20T06:51:05;1999.90;;;657.78;;
68995;SDS011;56056;48.990;12.146;2023-12-20T06:53:31;1999.90;;;748.08;;
68995;SDS011;56056;48.990;12.146;2023-12-20T06:55:58;1999.90;;;626.45;;
68995;SDS011;56056;48.990;12.146;2023-12-20T06:58:24;1999.90;;;747.63;;
68995;SDS011;56056;48.990;12.146;2023-12-20T07:00:50;1999.90;;;748.25;;
68995;SDS011;56056;48.990;12.146;2023-12-20T07:03:19;1999.90;;;626.90;;
68995;SDS011;56056;48.990;12.146;2023-12-20T07:05:45;1883.50;;;516.83;;
68995;SDS011;56056;48.990;12.146;2023-12-20T07:08:11;1878.03;;;494.50;;
68995;SDS011;56056;48.990;12.146;2023-12-20T07:10:39;1568.05;;;429.83;;
68995;SDS011;56056;48.990;12.146;2023-12-20T07:13:06;1978.38;;;654.88;;
68995;SDS011;56056;48.990;12.146;2023-12-20T07:15:33;1862.75;;;500.75;;
68995;SDS011;56056;48.990;12.146;2023-12-20T07:17:58;1999.90;;;616.85;;
68995;SDS011;56056;48.990;12.146;2023-12-20T07:20:25;1999.90;;;664.97;;
68995;SDS011;56056;48.990;12.146;2023-12-20T07:22:51;1999.90;;;674.67;;
68995;SDS011;56056;48.990;12.146;2023-12-20T07:25:17;1999.90;;;806.72;;
68995;SDS011;56056;48.990;12.146;2023-12-20T07:27:43;1999.90;;;629.55;;
68995;SDS011;56056;48.990;12.146;2023-12-20T07:30:11;1999.90;;;707.75;;
68995;SDS011;56056;48.990;12.146;2023-12-20T07:32:37;1999.90;;;683.83;;
68995;SDS011;56056;48.990;12.146;2023-12-20T07:35:03;1999.90;;;723.78;;
68995;SDS011;56056;48.990;12.146;2023-12-20T07:37:30;1999.90;;;792.05;;
68995;SDS011;56056;48.990;12.146;2023-12-20T07:39:56;1999.90;;;690.38;;
68995;SDS011;56056;48.990;12.146;2023-12-20T07:42:22;1999.90;;;867.50;;
68995;SDS011;56056;48.990;12.146;2023-12-20T07:44:48;1999.90;;;820.75;;
68995;SDS011;56056;48.990;12.146;2023-12-20T07:47:15;1999.90;;;799.30;;
68995;SDS011;56056;48.990;12.146;2023-12-20T07:49:46;1999.90;;;731.58;;
68995;SDS011;56056;48.990;12.146;2023-12-20T07:52:12;1999.90;;;825.80;;
68995;SDS011;56056;48.990;12.146;2023-12-20T07:54:39;1999.90;;;759.58;;
68995;SDS011;56056;48.990;12.146;2023-12-20T07:57:05;1999.90;;;754.67;;
68995;SDS011;56056;48.990;12.146;2023-12-20T07:59:31;1999.90;;;885.78;;
68995;SDS011;56056;48.990;12.146;2023-12-20T08:01:57;1999.90;;;861.05;;
68995;SDS011;56056;48.990;12.146;2023-12-20T08:04:24;1999.90;;;829.22;;
68995;SDS011;56056;48.990;12.146;2023-12-20T08:06:50;1999.90;;;896.83;;
68995;SDS011;56056;48.990;12.146;2023-12-20T08:09:16;1999.90;;;953.05;;
68995;SDS011;56056;48.990;12.146;2023-12-20T08:11:44;1999.90;;;909.22;;
68995;SDS011;56056;48.990;12.146;2023-12-20T08:14:10;1999.90;;;955.85;;
68995;SDS011;56056;48.990;12.146;2023-12-20T08:16:36;1999.90;;;970.92;;
68995;SDS011;56056;48.990;12.146;2023-12-20T08:19:02;1999.90;;;997.53;;
68995;SDS011;56056;48.990;12.146;2023-12-20T08:21:29;1999.90;;;999.90;;
68995;SDS011;56056;48.990;12.146;2023-12-20T08:23:55;1999.90;;;999.90;;
68995;SDS011;56056;48.990;12.146;2023-12-20T08:26:21;1999.90;;;999.90;;
68995;SDS011;56056;48.990;12.146;2023-12-20T08:28:49;1999.90;;;999.90;;
68995;SDS011;56056;48.990;12.146;2023-12-20T08:31:15;1999.90;;;999.90;;
68995;SDS011;56056;48.990;12.146;2023-12-20T08:33:43;1999.90;;;999.90;;
68995;SDS011;56056;48.990;12.146;2023-12-20T08:36:10;1999.90;;;999.90;;
68995;SDS011;56056;48.990;12.146;2023-12-20T08:38:37;1999.90;;;999.90;;
68995;SDS011;56056;48.990;12.146;2023-12-20T08:41:04;1999.90;;;999.90;;
68995;SDS011;56056;48.990;12.146;2023-12-20T08:43:30;1999.90;;;999.90;;
68995;SDS011;56056;48.990;12.146;2023-12-20T08:45:56;1999.90;;;999.90;;
68995;SDS011;56056;48.990;12.146;2023-12-20T08:48:22;1999.90;;;999.90;;
68995;SDS011;56056;48.990;12.146;2023-12-20T08:50:48;1999.90;;;999.90;;
68995;SDS011;56056;48.990;12.146;2023-12-20T08:53:16;1999.90;;;999.90;;
68995;SDS011;56056;48.990;12.146;2023-12-20T08:55:44;1999.90;;;999.90;;
68995;SDS011;56056;48.990;12.146;2023-12-20T08:58:10;1999.90;;;999.90;;
68995;SDS011;56056;48.990;12.146;2023-12-20T09:00:36;1999.90;;;999.90;;
68995;SDS011;56056;48.990;12.146;2023-12-20T09:03:04;1999.90;;;999.90;;
68995;SDS011;56056;48.990;12.146;2023-12-20T09:05:30;1999.90;;;999.90;;
68995;SDS011;56056;48.990;12.146;2023-12-20T09:07:56;1999.90;;;999.90;;
68995;SDS011;56056;48.990;12.146;2023-12-20T09:10:22;1999.90;;;999.90;;
68995;SDS011;56056;48.990;12.146;2023-12-20T09:12:49;1999.90;;;999.90;;
68995;SDS011;56056;48.990;12.146;2023-12-20T09:15:15;1999.90;;;999.90;;
68995;SDS011;56056;48.990;12.146;2023-12-20T09:17:41;1999.90;;;999.90;;
68995;SDS011;56056;48.990;12.146;2023-12-20T09:20:09;1999.90;;;999.90;;
68995;SDS011;56056;48.990;12.146;2023-12-20T09:22:35;1999.90;;;999.90;;
68995;SDS011;56056;48.990;12.146;2023-12-20T09:25:03;1999.90;;;999.90;;
68995;SDS011;56056;48.990;12.146;2023-12-20T09:27:30;1999.90;;;999.90;;
68995;SDS011;56056;48.990;12.146;2023-12-20T09:29:57;1999.90;;;999.90;;
68995;SDS011;56056;48.990;12.146;2023-12-20T09:32:23;1999.90;;;999.90;;
68995;SDS011;56056;48.990;12.146;2023-12-20T09:34:49;1999.90;;;999.90;;
68995;SDS011;56056;48.990;12.146;2023-12-20T09:37:15;1999.90;;;999.90;;
68995;SDS011;56056;48.990;12.146;2023-12-20T09:39:41;1999.90;;;999.90;;
68995;SDS011;56056;48.990;12.146;2023-12-20T09:42:07;1999.90;;;999.90;;
68995;SDS011;56056;48.990;12.146;2023-12-20T09:44:35;1999.90;;;999.90;;
68995;SDS011;56056;48.990;12.146;2023-12-20T09:47:03;1999.90;;;999.90;;
68995;SDS011;56056;48.990;12.146;2023-12-20T09:49:30;1999.90;;;999.90;;
68995;SDS011;56056;48.990;12.146;2023-12-20T09:51:57;1999.90;;;999.90;;
68995;SDS011;56056;48.990;12.146;2023-12-20T09:54:24;1999.90;;;999.90;;
68995;SDS011;56056;48.990;12.146;2023-12-20T09:56:51;1999.90;;;999.90;;
68995;SDS011;56056;48.990;12.146;2023-12-20T09:59:17;1999.90;;;999.90;;
68995;SDS011;56056;48.990;12.146;2023-12-20T10:01:43;1999.90;;;999.90;;
68995;SDS011;56056;48.990;12.146;2023-12-20T10:04:11;1999.90;;;999.90;;
68995;SDS011;56056;48.990;12.146;2023-12-20T10:06:38;1999.90;;;999.90;;
68995;SDS011;56056;48.990;12.146;2023-12-20T10:09:05;1999.90;;;999.90;;
68995;SDS011;56056;48.990;12.146;2023-12-20T10:11:31;1999.90;;;999.90;;
68995;SDS011;56056;48.990;12.146;2023-12-20T10:13:58;1999.90;;;999.90;;
68995;SDS011;56056;48.990;12.146;2023-12-20T10:16:27;1999.90;;;999.90;;
68995;SDS011;56056;48.990;12.146;2023-12-20T10:18:53;1999.90;;;999.90;;
68995;SDS011;56056;48.990;12.146;2023-12-20T10:21:21;1999.90;;;999.90;;
68995;SDS011;56056;48.990;12.146;2023-12-20T10:23:48;1999.90;;;999.90;;
68995;SDS011;56056;48.990;12.146;2023-12-20T10:26:20;1999.90;;;999.90;;
68995;SDS011;56056;48.990;12.146;2023-12-20T10:28:49;1376.10;;;817.95;;
68995;SDS011;56056;48.990;12.146;2023-12-20T10:31:25;1316.85;;;850.10;;
68995;SDS011;56056;48.990;12.146;2023-12-20T10:33:53;1418.97;;;998.97;;
68995;SDS011;56056;48.990;12.146;2023-12-20T10:36:24;1819.32;;;999.90;;
68995;SDS011;56056;48.990;12.146;2023-12-20T10:38:52;1577.85;;;999.90;;
68995;SDS011;56056;48.990;12.146;2023-12-20T10:41:19;1440.28;;;999.90;;
68995;SDS011;56056;48.990;12.146;2023-12-20T10:43:52;1329.47;;;999.90;;
68995;SDS011;56056;48.990;12.146;2023-12-20T10:46:21;1221.63;;;999.90;;
68995;SDS011;56056;48.990;12.146;2023-12-20T10:48:47;1083.60;;;973.55;;
68995;SDS011;56056;48.990;12.146;2023-12-20T10:51:17;936.17;;;853.00;;
68995;SDS011;56056;48.990;12.146;2023-12-20T10:53:45;733.30;;;681.78;;
68995;SDS011;56056;48.990;12.146;2023-12-20T10:56:15;600.88;;;557.03;;
68995;SDS011;56056;48.990;12.146;2023-12-20T10:58:43;403.77;;;377.90;;
68995;SDS011;56056;48.990;12.146;2023-12-20T11:01:10;315.48;;;293.75;;
68995;SDS011;56056;48.990;12.146;2023-12-20T11:03:41;196.30;;;184.35;;
68995;SDS011;56056;48.990;12.146;2023-12-20T11:06:14;208.48;;;192.00;;
68995;SDS011;56056;48.990;12.146;2023-12-20T11:08:55;188.63;;;173.00;;
68995;SDS011;56056;48.990;12.146;2023-12-20T11:11:35;125.38;;;116.45;;
68995;SDS011;56056;48.990;12.146;2023-12-20T11:14:12;267.95;;;248.82;;
68995;SDS011;56056;48.990;12.146;2023-12-20T11:16:44;357.27;;;334.17;;
68995;SDS011;56056;48.990;12.146;2023-12-20T11:19:11;449.05;;;417.48;;
68995;SDS011;56056;48.990;12.146;2023-12-20T11:21:39;507.75;;;473.05;;
68995;SDS011;56056;48.990;12.146;2023-12-20T11:24:07;470.38;;;435.52;;
68995;SDS011;56056;48.990;12.146;2023-12-20T11:26:34;483.92;;;450.40;;
68995;SDS011;56056;48.990;12.146;2023-12-20T11:31:54;812.67;;;748.67;;
68995;SDS011;56056;48.990;12.146;2023-12-20T11:34:20;1121.45;;;996.88;;
68995;SDS011;56056;48.990;12.146;2023-12-20T11:36:46;1202.03;;;999.90;;
68995;SDS011;56056;48.990;12.146;2023-12-20T11:39:13;1237.95;;;999.90;;
68995;SDS011;56056;48.990;12.146;2023-12-20T11:41:45;1230.53;;;999.90;;
68995;SDS011;56056;48.990;12.146;2023-12-20T11:44:11;1218.30;;;999.90;;
68995;SDS011;56056;48.990;12.146;2023-12-20T11:46:38;1163.55;;;999.90;;
68995;SDS011;56056;48.990;12.146;2023-12-20T11:49:04;1139.13;;;999.90;;
68995;SDS011;56056;48.990;12.146;2023-12-20T11:51:30;1131.63;;;999.90;;
68995;SDS011;56056;48.990;12.146;2023-12-20T11:53:56;1083.03;;;994.97;;
68995;SDS011;56056;48.990;12.146;2023-12-20T11:56:23;1069.25;;;984.30;;
68995;SDS011;56056;48.990;12.146;2023-12-20T11:58:49;1066.75;;;984.80;;
68995;SDS011;56056;48.990;12.146;2023-12-20T12:01:15;1038.72;;;961.30;;
68995;SDS011;56056;48.990;12.146;2023-12-20T12:03:41;1027.65;;;954.17;;
68995;SDS011;56056;48.990;12.146;2023-12-20T12:06:08;1014.83;;;942.75;;
68995;SDS011;56056;48.990;12.146;2023-12-20T12:08:33;999.67;;;932.03;;
68995;SDS011;56056;48.990;12.146;2023-12-20T12:11:01;983.40;;;916.53;;
68995;SDS011;56056;48.990;12.146;2023-12-20T12:13:30;985.90;;;919.88;;
68995;SDS011;56056;48.990;12.146;2023-12-20T12:15:56;935.92;;;876.88;;
68995;SDS011;56056;48.990;12.146;2023-12-20T12:18:22;919.30;;;861.88;;
68995;SDS011;56056;48.990;12.146;2023-12-20T12:20:48;915.85;;;856.42;;
68995;SDS011;56056;48.990;12.146;2023-12-20T12:23:15;916.20;;;857.22;;
68995;SDS011;56056;48.990;12.146;2023-12-20T12:25:49;915.63;;;855.58;;
68995;SDS011;56056;48.990;12.146;2023-12-20T12:28:15;961.50;;;895.75;;
68995;SDS011;56056;48.990;12.146;2023-12-20T12:30:43;896.92;;;839.50;;
68995;SDS011;56056;48.990;12.146;2023-12-20T12:33:20;807.03;;;757.60;;
68995;SDS011;56056;48.990;12.146;2023-12-20T12:35:46;745.10;;;702.08;;
68995;SDS011;56056;48.990;12.146;2023-12-20T12:38:13;677.75;;;639.28;;
68995;SDS011;56056;48.990;12.146;2023-12-20T12:40:40;598.47;;;565.97;;
68995;SDS011;56056;48.990;12.146;2023-12-20T12:43:09;503.90;;;476.98;;
68995;SDS011;56056;48.990;12.146;2023-12-20T12:45:34;450.00;;;425.77;;
68995;SDS011;56056;48.990;12.146;2023-12-20T12:48:02;374.77;;;355.13;;
68995;SDS011;56056;48.990;12.146;2023-12-20T12:50:28;265.88;;;253.23;;
68995;SDS011;56056;48.990;12.146;2023-12-20T12:52:55;240.35;;;229.57;;
68995;SDS011;56056;48.990;12.146;2023-12-20T12:55:21;213.18;;;203.55;;
68995;SDS011;56056;48.990;12.146;2023-12-20T12:57:47;215.32;;;206.05;;
68995;SDS011;56056;48.990;12.146;2023-12-20T13:00:13;196.35;;;187.90;;
68995;SDS011;56056;48.990;12.146;2023-12-20T13:02:39;165.77;;;158.85;;
68995;SDS011;56056;48.990;12.146;2023-12-20T13:05:10;141.10;;;135.02;;
68995;SDS011;56056;48.990;12.146;2023-12-20T13:07:36;110.15;;;105.38;;
68995;SDS011;56056;48.990;12.146;2023-12-20T13:10:02;103.40;;;99.20;;
68995;SDS011;56056;48.990;12.146;2023-12-20T13:12:29;101.18;;;97.13;;
68995;SDS011;56056;48.990;12.146;2023-12-20T13:14:55;90.55;;;86.88;;
68995;SDS011;56056;48.990;12.146;2023-12-20T13:17:21;95.78;;;91.82;;
68995;SDS011;56056;48.990;12.146;2023-12-20T13:19:47;83.45;;;80.18;;
68995;SDS011;56056;48.990;12.146;2023-12-20T13:22:14;91.47;;;87.18;;
68995;SDS011;56056;48.990;12.146;2023-12-20T13:24:40;107.22;;;102.72;;
68995;SDS011;56056;48.990;12.146;2023-12-20T13:27:05;75.22;;;71.88;;
68995;SDS011;56056;48.990;12.146;2023-12-20T13:29:31;65.80;;;62.50;;
68995;SDS011;56056;48.990;12.146;2023-12-20T13:31:57;57.85;;;55.45;;
68995;SDS011;56056;48.990;12.146;2023-12-20T13:34:23;59.92;;;57.40;;
68995;SDS011;56056;48.990;12.146;2023-12-20T13:36:49;54.88;;;52.65;;